Glocester, Rhode Island
Current Conditions -  °F | °C
As of 6:55 PM on Saturday 20 Dec 2014 (Local Time) from KSFZ Reporting Station
Overcast Overcast  
Wind Chill: 22°   Ceiling: 2700
Heat Index: 30°   Visibility: 9mi
Dew Point: 21°   Wind: 9mph
Humidity: 69%   Direction: 10°N
Pressure: 30.27"   Gusts: NA
Location:  41.8875°N, 71.5975°W
Report Text: KSFZ 202355Z 01008KT 9SM BKN027 OVC032 M01/M06 A3027 RMK AO1 10010 21010 400101060 52014
Loading
Personal Weather Stations






























Interactive Weather Map New forecast layout! Learn more

10-Day Weather Forecast

Advertisements
Track Severe Weather on mobile